sensor_id;sensor_type;location;lat;lon;timestamp;temperature;humidity
37678;DHT22;23517;50.390;8.616;2024-02-16T00:02:01;8.10;1.00
37678;DHT22;23517;50.390;8.616;2024-02-16T00:04:28;8.10;1.00
37678;DHT22;23517;50.390;8.616;2024-02-16T00:06:57;8.10;1.00
37678;DHT22;23517;50.390;8.616;2024-02-16T00:09:24;8.10;1.00
37678;DHT22;23517;50.390;8.616;2024-02-16T00:11:50;8.20;1.00
37678;DHT22;23517;50.390;8.616;2024-02-16T00:14:19;8.10;1.00
37678;DHT22;23517;50.390;8.616;2024-02-16T00:16:47;8.10;1.00
37678;DHT22;23517;50.390;8.616;2024-02-16T00:19:14;8.10;1.00
37678;DHT22;23517;50.390;8.616;2024-02-16T00:21:41;8.10;1.00
37678;DHT22;23517;50.390;8.616;2024-02-16T00:24:09;8.10;1.00
37678;DHT22;23517;50.390;8.616;2024-02-16T00:26:37;8.10;1.00
37678;DHT22;23517;50.390;8.616;2024-02-16T00:29:06;8.10;1.00
37678;DHT22;23517;50.390;8.616;2024-02-16T00:31:32;8.10;1.00
37678;DHT22;23517;50.390;8.616;2024-02-16T00:33:59;8.00;1.00
37678;DHT22;23517;50.390;8.616;2024-02-16T00:36:26;8.10;1.00
37678;DHT22;23517;50.390;8.616;2024-02-16T00:38:54;8.00;1.00
37678;DHT22;23517;50.390;8.616;2024-02-16T00:41:22;8.00;1.00
37678;DHT22;23517;50.390;8.616;2024-02-16T00:43:49;8.00;1.00
37678;DHT22;23517;50.390;8.616;2024-02-16T00:46:18;8.00;1.00
37678;DHT22;23517;50.390;8.616;2024-02-16T00:48:45;8.10;1.00
37678;DHT22;23517;50.390;8.616;2024-02-16T00:51:15;8.10;1.00
37678;DHT22;23517;50.390;8.616;2024-02-16T00:53:41;8.10;1.00
37678;DHT22;23517;50.390;8.616;2024-02-16T00:56:08;8.10;1.00
37678;DHT22;23517;50.390;8.616;2024-02-16T00:58:36;8.10;1.00
37678;DHT22;23517;50.390;8.616;2024-02-16T01:01:04;8.20;1.00
37678;DHT22;23517;50.390;8.616;2024-02-16T01:03:31;8.30;1.00
37678;DHT22;23517;50.390;8.616;2024-02-16T01:05:58;8.30;1.00
37678;DHT22;23517;50.390;8.616;2024-02-16T01:08:24;8.30;1.00
37678;DHT22;23517;50.390;8.616;2024-02-16T01:10:51;8.30;1.00
37678;DHT22;23517;50.390;8.616;2024-02-16T01:13:18;8.30;1.00
37678;DHT22;23517;50.390;8.616;2024-02-16T01:15:44;8.20;1.00
37678;DHT22;23517;50.390;8.616;2024-02-16T01:18:11;8.20;1.00
37678;DHT22;23517;50.390;8.616;2024-02-16T01:20:38;8.20;1.00
37678;DHT22;23517;50.390;8.616;2024-02-16T01:23:05;8.20;1.00
37678;DHT22;23517;50.390;8.616;2024-02-16T01:25:32;8.20;1.00
37678;DHT22;23517;50.390;8.616;2024-02-16T01:27:59;8.20;1.00
37678;DHT22;23517;50.390;8.616;2024-02-16T01:30:25;8.20;1.00
37678;DHT22;23517;50.390;8.616;2024-02-16T01:32:52;8.20;1.00
37678;DHT22;23517;50.390;8.616;2024-02-16T01:35:19;8.20;1.00
37678;DHT22;23517;50.390;8.616;2024-02-16T01:37:46;8.20;1.00
37678;DHT22;23517;50.390;8.616;2024-02-16T01:40:14;8.20;1.00
37678;DHT22;23517;50.390;8.616;2024-02-16T01:42:44;8.20;1.00
37678;DHT22;23517;50.390;8.616;2024-02-16T01:45:10;8.20;1.00
37678;DHT22;23517;50.390;8.616;2024-02-16T01:47:42;8.20;1.00
37678;DHT22;23517;50.390;8.616;2024-02-16T01:50:10;8.20;1.00
37678;DHT22;23517;50.390;8.616;2024-02-16T01:52:37;8.20;1.00
37678;DHT22;23517;50.390;8.616;2024-02-16T01:55:05;8.10;1.00
37678;DHT22;23517;50.390;8.616;2024-02-16T01:57:35;8.10;1.00
37678;DHT22;23517;50.390;8.616;2024-02-16T02:00:03;8.20;1.00
37678;DHT22;23517;50.390;8.616;2024-02-16T02:02:32;8.10;1.00
37678;DHT22;23517;50.390;8.616;2024-02-16T02:04:58;8.10;1.00
37678;DHT22;23517;50.390;8.616;2024-02-16T02:07:26;8.10;1.00
37678;DHT22;23517;50.390;8.616;2024-02-16T02:09:54;8.10;1.00
37678;DHT22;23517;50.390;8.616;2024-02-16T02:12:21;8.10;1.00
37678;DHT22;23517;50.390;8.616;2024-02-16T02:14:49;8.10;1.00
37678;DHT22;23517;50.390;8.616;2024-02-16T02:17:17;8.00;1.00
37678;DHT22;23517;50.390;8.616;2024-02-16T02:19:46;8.00;1.00
37678;DHT22;23517;50.390;8.616;2024-02-16T02:22:22;8.00;1.00
37678;DHT22;23517;50.390;8.616;2024-02-16T02:24:49;8.00;1.00
37678;DHT22;23517;50.390;8.616;2024-02-16T02:27:15;8.00;1.00
37678;DHT22;23517;50.390;8.616;2024-02-16T02:29:43;8.00;1.00
37678;DHT22;23517;50.390;8.616;2024-02-16T02:32:10;8.00;1.00
37678;DHT22;23517;50.390;8.616;2024-02-16T02:34:39;8.00;1.00
37678;DHT22;23517;50.390;8.616;2024-02-16T02:37:06;8.00;1.00
37678;DHT22;23517;50.390;8.616;2024-02-16T02:39:33;8.00;1.00
37678;DHT22;23517;50.390;8.616;2024-02-16T02:42:01;8.00;1.00
37678;DHT22;23517;50.390;8.616;2024-02-16T02:44:27;8.00;1.00
37678;DHT22;23517;50.390;8.616;2024-02-16T02:46:56;8.00;1.00
37678;DHT22;23517;50.390;8.616;2024-02-16T02:49:22;8.00;1.00
37678;DHT22;23517;50.390;8.616;2024-02-16T02:51:49;8.00;1.00
37678;DHT22;23517;50.390;8.616;2024-02-16T02:54:16;8.00;1.00
37678;DHT22;23517;50.390;8.616;2024-02-16T02:56:43;8.00;1.00
37678;DHT22;23517;50.390;8.616;2024-02-16T02:59:10;8.00;1.00
37678;DHT22;23517;50.390;8.616;2024-02-16T03:01:37;8.00;1.00
37678;DHT22;23517;50.390;8.616;2024-02-16T03:04:04;8.00;1.00
37678;DHT22;23517;50.390;8.616;2024-02-16T03:06:31;8.00;1.00
37678;DHT22;23517;50.390;8.616;2024-02-16T03:09:00;8.00;1.00
37678;DHT22;23517;50.390;8.616;2024-02-16T03:11:26;8.00;1.00
37678;DHT22;23517;50.390;8.616;2024-02-16T03:13:53;8.00;1.00
37678;DHT22;23517;50.390;8.616;2024-02-16T03:16:20;8.00;1.00
37678;DHT22;23517;50.390;8.616;2024-02-16T03:18:46;8.00;1.00
37678;DHT22;23517;50.390;8.616;2024-02-16T03:21:14;8.00;1.00
37678;DHT22;23517;50.390;8.616;2024-02-16T03:23:44;8.00;1.00
37678;DHT22;23517;50.390;8.616;2024-02-16T03:26:15;8.00;1.00
37678;DHT22;23517;50.390;8.616;2024-02-16T03:28:46;8.00;1.00
37678;DHT22;23517;50.390;8.616;2024-02-16T03:31:22;8.00;1.00
37678;DHT22;23517;50.390;8.616;2024-02-16T03:33:50;8.00;1.00
37678;DHT22;23517;50.390;8.616;2024-02-16T03:36:19;8.00;1.00
37678;DHT22;23517;50.390;8.616;2024-02-16T03:38:47;8.00;1.00
37678;DHT22;23517;50.390;8.616;2024-02-16T03:41:19;7.90;1.00
37678;DHT22;23517;50.390;8.616;2024-02-16T03:43:47;7.90;1.00
37678;DHT22;23517;50.390;8.616;2024-02-16T03:46:14;7.90;1.00
37678;DHT22;23517;50.390;8.616;2024-02-16T03:48:41;7.90;1.00
37678;DHT22;23517;50.390;8.616;2024-02-16T03:51:08;7.90;1.00
37678;DHT22;23517;50.390;8.616;2024-02-16T03:53:35;7.80;1.00
37678;DHT22;23517;50.390;8.616;2024-02-16T03:56:02;7.80;1.00
37678;DHT22;23517;50.390;8.616;2024-02-16T03:58:30;7.80;1.00
37678;DHT22;23517;50.390;8.616;2024-02-16T04:00:57;7.80;1.00
37678;DHT22;23517;50.390;8.616;2024-02-16T04:03:25;7.80;1.00
37678;DHT22;23517;50.390;8.616;2024-02-16T04:05:51;7.80;1.00
37678;DHT22;23517;50.390;8.616;2024-02-16T04:08:19;7.90;1.00
37678;DHT22;23517;50.390;8.616;2024-02-16T04:10:47;7.90;1.00
37678;DHT22;23517;50.390;8.616;2024-02-16T04:13:14;7.80;1.00
37678;DHT22;23517;50.390;8.616;2024-02-16T04:15:41;7.80;1.00
37678;DHT22;23517;50.390;8.616;2024-02-16T04:18:08;7.90;1.00
37678;DHT22;23517;50.390;8.616;2024-02-16T04:20:37;7.90;1.00
37678;DHT22;23517;50.390;8.616;2024-02-16T04:23:04;7.90;1.00
37678;DHT22;23517;50.390;8.616;2024-02-16T04:25:31;7.90;1.00
37678;DHT22;23517;50.390;8.616;2024-02-16T04:27:58;7.90;1.00
37678;DHT22;23517;50.390;8.616;2024-02-16T04:30:25;7.90;1.00
37678;DHT22;23517;50.390;8.616;2024-02-16T04:32:53;8.00;1.00
37678;DHT22;23517;50.390;8.616;2024-02-16T04:35:20;8.00;1.00
37678;DHT22;23517;50.390;8.616;2024-02-16T04:37:47;8.00;1.00
37678;DHT22;23517;50.390;8.616;2024-02-16T04:40:13;8.00;1.00
37678;DHT22;23517;50.390;8.616;2024-02-16T04:42:40;8.00;1.00
37678;DHT22;23517;50.390;8.616;2024-02-16T04:45:10;8.10;1.00
37678;DHT22;23517;50.390;8.616;2024-02-16T04:47:37;8.10;1.00
37678;DHT22;23517;50.390;8.616;2024-02-16T04:50:06;8.10;1.00
37678;DHT22;23517;50.390;8.616;2024-02-16T04:52:37;8.10;1.00
37678;DHT22;23517;50.390;8.616;2024-02-16T04:55:05;8.10;1.00
37678;DHT22;23517;50.390;8.616;2024-02-16T04:57:33;8.10;1.00
37678;DHT22;23517;50.390;8.616;2024-02-16T05:00:00;8.20;1.00
37678;DHT22;23517;50.390;8.616;2024-02-16T05:02:27;8.10;1.00
37678;DHT22;23517;50.390;8.616;2024-02-16T05:04:54;8.10;1.00
37678;DHT22;23517;50.390;8.616;2024-02-16T05:07:20;8.10;1.00
37678;DHT22;23517;50.390;8.616;2024-02-16T05:09:47;8.20;1.00
37678;DHT22;23517;50.390;8.616;2024-02-16T05:12:14;8.10;1.00
37678;DHT22;23517;50.390;8.616;2024-02-16T05:14:41;8.20;1.00
37678;DHT22;23517;50.390;8.616;2024-02-16T05:17:11;8.20;1.00
37678;DHT22;23517;50.390;8.616;2024-02-16T05:19:38;8.20;1.00
37678;DHT22;23517;50.390;8.616;2024-02-16T05:22:05;8.20;1.00
37678;DHT22;23517;50.390;8.616;2024-02-16T05:24:32;8.20;1.00
37678;DHT22;23517;50.390;8.616;2024-02-16T05:26:59;8.20;1.00
37678;DHT22;23517;50.390;8.616;2024-02-16T05:29:26;8.20;1.00
37678;DHT22;23517;50.390;8.616;2024-02-16T05:31:53;8.20;1.00
37678;DHT22;23517;50.390;8.616;2024-02-16T05:34:20;8.20;1.00
37678;DHT22;23517;50.390;8.616;2024-02-16T05:36:47;8.20;1.00
37678;DHT22;23517;50.390;8.616;2024-02-16T05:39:14;8.20;1.00
37678;DHT22;23517;50.390;8.616;2024-02-16T05:41:48;8.10;1.00
37678;DHT22;23517;50.390;8.616;2024-02-16T05:44:15;8.10;1.00
37678;DHT22;23517;50.390;8.616;2024-02-16T05:46:41;8.10;1.00
37678;DHT22;23517;50.390;8.616;2024-02-16T05:49:08;8.10;1.00
37678;DHT22;23517;50.390;8.616;2024-02-16T05:51:39;8.10;1.00
37678;DHT22;23517;50.390;8.616;2024-02-16T05:54:09;8.10;1.00
37678;DHT22;23517;50.390;8.616;2024-02-16T05:56:37;8.10;1.00
37678;DHT22;23517;50.390;8.616;2024-02-16T05:59:05;8.00;1.00
37678;DHT22;23517;50.390;8.616;2024-02-16T06:01:32;8.00;1.00
37678;DHT22;23517;50.390;8.616;2024-02-16T06:03:58;8.00;1.00
37678;DHT22;23517;50.390;8.616;2024-02-16T06:06:25;8.00;1.00
37678;DHT22;23517;50.390;8.616;2024-02-16T06:08:52;8.00;1.00
37678;DHT22;23517;50.390;8.616;2024-02-16T06:11:19;7.90;1.00
37678;DHT22;23517;50.390;8.616;2024-02-16T06:13:46;7.90;1.00
37678;DHT22;23517;50.390;8.616;2024-02-16T06:16:12;7.90;1.00
37678;DHT22;23517;50.390;8.616;2024-02-16T06:18:39;7.90;1.00
37678;DHT22;23517;50.390;8.616;2024-02-16T06:21:06;7.80;1.00
37678;DHT22;23517;50.390;8.616;2024-02-16T06:23:33;7.80;1.00
37678;DHT22;23517;50.390;8.616;2024-02-16T06:26:00;7.80;1.00
37678;DHT22;23517;50.390;8.616;2024-02-16T06:28:26;7.80;1.00
37678;DHT22;23517;50.390;8.616;2024-02-16T06:30:53;7.80;1.00
37678;DHT22;23517;50.390;8.616;2024-02-16T06:33:20;7.80;1.00
37678;DHT22;23517;50.390;8.616;2024-02-16T06:35:48;7.70;1.00
37678;DHT22;23517;50.390;8.616;2024-02-16T06:38:16;7.70;1.00
37678;DHT22;23517;50.390;8.616;2024-02-16T06:40:43;7.70;1.00
37678;DHT22;23517;50.390;8.616;2024-02-16T06:43:10;7.70;1.00
37678;DHT22;23517;50.390;8.616;2024-02-16T06:45:37;7.70;1.00
37678;DHT22;23517;50.390;8.616;2024-02-16T06:48:04;7.70;1.00
37678;DHT22;23517;50.390;8.616;2024-02-16T06:50:32;7.70;1.00
37678;DHT22;23517;50.390;8.616;2024-02-16T06:52:59;7.70;1.00
37678;DHT22;23517;50.390;8.616;2024-02-16T06:55:26;7.60;1.00
37678;DHT22;23517;50.390;8.616;2024-02-16T06:57:53;7.60;1.00
37678;DHT22;23517;50.390;8.616;2024-02-16T07:00:19;7.60;1.00
37678;DHT22;23517;50.390;8.616;2024-02-16T07:02:46;7.70;1.00
37678;DHT22;23517;50.390;8.616;2024-02-16T07:05:13;7.70;1.00
37678;DHT22;23517;50.390;8.616;2024-02-16T07:07:40;7.70;1.00
37678;DHT22;23517;50.390;8.616;2024-02-16T07:10:07;7.80;1.00
37678;DHT22;23517;50.390;8.616;2024-02-16T07:12:40;7.80;1.00
37678;DHT22;23517;50.390;8.616;2024-02-16T07:15:07;8.00;1.00
37678;DHT22;23517;50.390;8.616;2024-02-16T07:17:37;8.10;1.00
37678;DHT22;23517;50.390;8.616;2024-02-16T07:20:04;8.30;1.00
37678;DHT22;23517;50.390;8.616;2024-02-16T07:22:31;8.50;1.00
37678;DHT22;23517;50.390;8.616;2024-02-16T07:24:59;8.70;1.00
37678;DHT22;23517;50.390;8.616;2024-02-16T07:27:30;8.90;1.00
37678;DHT22;23517;50.390;8.616;2024-02-16T07:29:57;9.10;1.00
37678;DHT22;23517;50.390;8.616;2024-02-16T07:32:24;9.30;1.00
37678;DHT22;23517;50.390;8.616;2024-02-16T07:34:51;9.50;1.00
37678;DHT22;23517;50.390;8.616;2024-02-16T07:37:18;9.70;1.00
37678;DHT22;23517;50.390;8.616;2024-02-16T07:39:44;9.80;1.00
37678;DHT22;23517;50.390;8.616;2024-02-16T07:42:11;10.00;1.00
37678;DHT22;23517;50.390;8.616;2024-02-16T07:44:39;10.00;1.00
37678;DHT22;23517;50.390;8.616;2024-02-16T07:47:06;10.20;1.00
37678;DHT22;23517;50.390;8.616;2024-02-16T07:49:33;10.20;1.00
37678;DHT22;23517;50.390;8.616;2024-02-16T07:52:02;10.20;1.00
37678;DHT22;23517;50.390;8.616;2024-02-16T07:54:29;10.30;1.00
37678;DHT22;23517;50.390;8.616;2024-02-16T07:56:56;10.40;1.00
37678;DHT22;23517;50.390;8.616;2024-02-16T07:59:27;10.40;99.90
37678;DHT22;23517;50.390;8.616;2024-02-16T08:01:54;10.40;1.00
37678;DHT22;23517;50.390;8.616;2024-02-16T08:04:21;10.50;1.00
37678;DHT22;23517;50.390;8.616;2024-02-16T08:06:47;10.50;1.00
37678;DHT22;23517;50.390;8.616;2024-02-16T08:09:14;10.50;1.00
37678;DHT22;23517;50.390;8.616;2024-02-16T08:11:41;10.50;1.00
37678;DHT22;23517;50.390;8.616;2024-02-16T08:14:08;10.60;1.00
37678;DHT22;23517;50.390;8.616;2024-02-16T08:16:35;10.60;1.00
37678;DHT22;23517;50.390;8.616;2024-02-16T08:19:02;10.60;1.00
37678;DHT22;23517;50.390;8.616;2024-02-16T08:21:29;10.50;1.00
37678;DHT22;23517;50.390;8.616;2024-02-16T08:23:55;10.50;1.00
37678;DHT22;23517;50.390;8.616;2024-02-16T08:26:22;10.50;1.00
37678;DHT22;23517;50.390;8.616;2024-02-16T08:28:49;10.50;1.00
37678;DHT22;23517;50.390;8.616;2024-02-16T08:31:17;10.60;1.00
37678;DHT22;23517;50.390;8.616;2024-02-16T08:33:45;10.60;1.00
37678;DHT22;23517;50.390;8.616;2024-02-16T08:36:14;10.60;1.00
37678;DHT22;23517;50.390;8.616;2024-02-16T08:38:41;10.70;1.00
37678;DHT22;23517;50.390;8.616;2024-02-16T08:41:08;10.70;1.00
37678;DHT22;23517;50.390;8.616;2024-02-16T08:43:34;10.80;1.00
37678;DHT22;23517;50.390;8.616;2024-02-16T08:46:01;10.90;1.00
37678;DHT22;23517;50.390;8.616;2024-02-16T08:48:28;10.90;1.00
37678;DHT22;23517;50.390;8.616;2024-02-16T08:50:54;10.90;1.00
37678;DHT22;23517;50.390;8.616;2024-02-16T08:53:21;10.90;1.00
37678;DHT22;23517;50.390;8.616;2024-02-16T08:55:48;11.00;1.00
37678;DHT22;23517;50.390;8.616;2024-02-16T08:58:15;11.00;1.00
37678;DHT22;23517;50.390;8.616;2024-02-16T09:00:41;11.00;1.00
37678;DHT22;23517;50.390;8.616;2024-02-16T09:03:08;11.00;1.00
37678;DHT22;23517;50.390;8.616;2024-02-16T09:05:35;11.10;1.00
37678;DHT22;23517;50.390;8.616;2024-02-16T09:08:03;11.10;1.00
37678;DHT22;23517;50.390;8.616;2024-02-16T09:10:32;11.10;1.00
37678;DHT22;23517;50.390;8.616;2024-02-16T09:13:03;11.10;1.00
37678;DHT22;23517;50.390;8.616;2024-02-16T09:15:30;11.10;1.00
37678;DHT22;23517;50.390;8.616;2024-02-16T09:17:57;11.10;1.00
37678;DHT22;23517;50.390;8.616;2024-02-16T09:20:23;11.20;1.00
37678;DHT22;23517;50.390;8.616;2024-02-16T09:22:50;11.20;1.00
37678;DHT22;23517;50.390;8.616;2024-02-16T09:25:17;11.20;1.00
37678;DHT22;23517;50.390;8.616;2024-02-16T09:27:44;11.20;1.00
37678;DHT22;23517;50.390;8.616;2024-02-16T09:30:12;11.30;1.00
37678;DHT22;23517;50.390;8.616;2024-02-16T09:32:40;11.20;1.00
37678;DHT22;23517;50.390;8.616;2024-02-16T09:35:08;11.20;1.00
37678;DHT22;23517;50.390;8.616;2024-02-16T09:37:36;11.20;1.00
37678;DHT22;23517;50.390;8.616;2024-02-16T09:40:06;11.20;1.00
37678;DHT22;23517;50.390;8.616;2024-02-16T09:42:37;11.30;1.00
37678;DHT22;23517;50.390;8.616;2024-02-16T09:45:06;11.30;1.00
37678;DHT22;23517;50.390;8.616;2024-02-16T09:47:33;11.30;1.00
37678;DHT22;23517;50.390;8.616;2024-02-16T09:50:01;11.40;1.00
37678;DHT22;23517;50.390;8.616;2024-02-16T09:52:30;11.30;1.00
37678;DHT22;23517;50.390;8.616;2024-02-16T09:54:56;11.40;1.00
37678;DHT22;23517;50.390;8.616;2024-02-16T09:57:23;11.40;1.00
37678;DHT22;23517;50.390;8.616;2024-02-16T09:59:50;11.50;1.00
37678;DHT22;23517;50.390;8.616;2024-02-16T10:02:17;11.60;1.00
37678;DHT22;23517;50.390;8.616;2024-02-16T10:04:44;11.80;1.00
37678;DHT22;23517;50.390;8.616;2024-02-16T10:07:10;11.90;1.00
37678;DHT22;23517;50.390;8.616;2024-02-16T10:09:39;12.10;1.00
37678;DHT22;23517;50.390;8.616;2024-02-16T10:12:09;12.20;99.90
37678;DHT22;23517;50.390;8.616;2024-02-16T10:14:36;12.40;99.90
37678;DHT22;23517;50.390;8.616;2024-02-16T10:17:05;12.50;99.90
37678;DHT22;23517;50.390;8.616;2024-02-16T10:19:33;12.60;1.00
37678;DHT22;23517;50.390;8.616;2024-02-16T10:22:09;12.70;1.00
37678;DHT22;23517;50.390;8.616;2024-02-16T10:24:38;12.90;40.40
37678;DHT22;23517;50.390;8.616;2024-02-16T10:27:06;12.90;1.00
37678;DHT22;23517;50.390;8.616;2024-02-16T10:29:38;13.00;1.00
37678;DHT22;23517;50.390;8.616;2024-02-16T10:32:06;13.10;99.90
37678;DHT22;23517;50.390;8.616;2024-02-16T10:34:34;13.20;99.90
37678;DHT22;23517;50.390;8.616;2024-02-16T10:37:03;13.20;40.00
37678;DHT22;23517;50.390;8.616;2024-02-16T10:39:32;13.30;12.80
37678;DHT22;23517;50.390;8.616;2024-02-16T10:42:00;13.40;1.00
37678;DHT22;23517;50.390;8.616;2024-02-16T10:44:28;13.50;1.00
37678;DHT22;23517;50.390;8.616;2024-02-16T10:46:55;13.60;1.00
37678;DHT22;23517;50.390;8.616;2024-02-16T10:49:25;13.70;1.00
37678;DHT22;23517;50.390;8.616;2024-02-16T10:51:54;13.80;1.00
37678;DHT22;23517;50.390;8.616;2024-02-16T10:54:27;14.00;1.00
37678;DHT22;23517;50.390;8.616;2024-02-16T10:56:55;14.20;1.00
37678;DHT22;23517;50.390;8.616;2024-02-16T10:59:22;14.30;1.00
37678;DHT22;23517;50.390;8.616;2024-02-16T11:01:59;14.40;1.00
37678;DHT22;23517;50.390;8.616;2024-02-16T11:04:36;14.50;1.00
37678;DHT22;23517;50.390;8.616;2024-02-16T11:07:11;14.50;1.00
37678;DHT22;23517;50.390;8.616;2024-02-16T11:09:43;14.60;1.00
37678;DHT22;23517;50.390;8.616;2024-02-16T11:12:12;14.60;1.00
37678;DHT22;23517;50.390;8.616;2024-02-16T11:14:43;14.60;1.00
37678;DHT22;23517;50.390;8.616;2024-02-16T11:17:15;14.70;1.00
37678;DHT22;23517;50.390;8.616;2024-02-16T11:19:47;14.70;1.00
37678;DHT22;23517;50.390;8.616;2024-02-16T11:22:18;14.70;1.00
37678;DHT22;23517;50.390;8.616;2024-02-16T11:24:48;14.70;1.00
37678;DHT22;23517;50.390;8.616;2024-02-16T11:27:17;14.70;1.00
37678;DHT22;23517;50.390;8.616;2024-02-16T11:29:50;14.70;1.00
37678;DHT22;23517;50.390;8.616;2024-02-16T11:32:19;14.70;1.00
37678;DHT22;23517;50.390;8.616;2024-02-16T11:34:46;14.70;1.00
37678;DHT22;23517;50.390;8.616;2024-02-16T11:37:14;14.70;1.00
37678;DHT22;23517;50.390;8.616;2024-02-16T11:39:41;14.70;1.00
37678;DHT22;23517;50.390;8.616;2024-02-16T11:42:12;14.70;1.00
37678;DHT22;23517;50.390;8.616;2024-02-16T11:44:53;14.70;1.00
37678;DHT22;23517;50.390;8.616;2024-02-16T11:47:24;14.70;1.00
37678;DHT22;23517;50.390;8.616;2024-02-16T11:50:05;14.80;1.00
37678;DHT22;23517;50.390;8.616;2024-02-16T11:52:33;14.70;1.00
37678;DHT22;23517;50.390;8.616;2024-02-16T11:55:01;14.70;1.00
37678;DHT22;23517;50.390;8.616;2024-02-16T11:57:30;14.60;1.00
37678;DHT22;23517;50.390;8.616;2024-02-16T11:59:57;14.60;1.00
37678;DHT22;23517;50.390;8.616;2024-02-16T12:02:24;14.70;1.00
37678;DHT22;23517;50.390;8.616;2024-02-16T12:05:01;14.80;1.00
37678;DHT22;23517;50.390;8.616;2024-02-16T12:07:30;14.90;1.00
37678;DHT22;23517;50.390;8.616;2024-02-16T12:09:58;14.90;1.00
37678;DHT22;23517;50.390;8.616;2024-02-16T12:12:26;14.90;1.00
37678;DHT22;23517;50.390;8.616;2024-02-16T12:14:54;14.80;1.00
37678;DHT22;23517;50.390;8.616;2024-02-16T12:17:21;14.80;1.00
37678;DHT22;23517;50.390;8.616;2024-02-16T12:19:50;14.90;1.00
37678;DHT22;23517;50.390;8.616;2024-02-16T12:22:18;15.00;1.00
37678;DHT22;23517;50.390;8.616;2024-02-16T12:24:47;15.00;1.00
37678;DHT22;23517;50.390;8.616;2024-02-16T12:27:15;15.00;1.00
37678;DHT22;23517;50.390;8.616;2024-02-16T12:29:41;15.10;1.00
37678;DHT22;23517;50.390;8.616;2024-02-16T12:32:08;15.10;1.00
37678;DHT22;23517;50.390;8.616;2024-02-16T12:34:36;15.10;1.00
37678;DHT22;23517;50.390;8.616;2024-02-16T12:37:06;15.10;1.00
37678;DHT22;23517;50.390;8.616;2024-02-16T12:39:38;15.10;1.00
37678;DHT22;23517;50.390;8.616;2024-02-16T12:42:06;15.00;1.00
37678;DHT22;23517;50.390;8.616;2024-02-16T12:44:33;15.10;1.00
37678;DHT22;23517;50.390;8.616;2024-02-16T12:47:00;15.20;1.00
37678;DHT22;23517;50.390;8.616;2024-02-16T12:49:26;15.20;1.00
37678;DHT22;23517;50.390;8.616;2024-02-16T12:51:53;15.20;1.00
37678;DHT22;23517;50.390;8.616;2024-02-16T12:54:22;15.10;1.00
37678;DHT22;23517;50.390;8.616;2024-02-16T12:56:49;15.10;1.00
37678;DHT22;23517;50.390;8.616;2024-02-16T12:59:17;15.20;1.00
37678;DHT22;23517;50.390;8.616;2024-02-16T13:01:44;15.20;1.00
37678;DHT22;23517;50.390;8.616;2024-02-16T13:04:12;15.00;1.00
37678;DHT22;23517;50.390;8.616;2024-02-16T13:06:47;15.10;1.00
37678;DHT22;23517;50.390;8.616;2024-02-16T13:09:14;15.10;1.00
37678;DHT22;23517;50.390;8.616;2024-02-16T13:11:41;15.20;1.00
37678;DHT22;23517;50.390;8.616;2024-02-16T13:14:08;15.30;1.00
37678;DHT22;23517;50.390;8.616;2024-02-16T13:16:34;15.30;1.00
37678;DHT22;23517;50.390;8.616;2024-02-16T13:19:01;15.30;1.00
37678;DHT22;23517;50.390;8.616;2024-02-16T13:21:29;15.30;1.00
37678;DHT22;23517;50.390;8.616;2024-02-16T13:23:56;15.40;1.00
37678;DHT22;23517;50.390;8.616;2024-02-16T13:26:23;15.40;1.00
37678;DHT22;23517;50.390;8.616;2024-02-16T13:28:50;15.50;1.00
37678;DHT22;23517;50.390;8.616;2024-02-16T13:31:17;15.50;1.00
37678;DHT22;23517;50.390;8.616;2024-02-16T13:33:43;15.50;1.00
37678;DHT22;23517;50.390;8.616;2024-02-16T13:36:10;15.40;1.00
37678;DHT22;23517;50.390;8.616;2024-02-16T13:38:37;15.40;1.00
37678;DHT22;23517;50.390;8.616;2024-02-16T13:41:04;15.30;1.00
37678;DHT22;23517;50.390;8.616;2024-02-16T13:43:31;15.30;1.00
37678;DHT22;23517;50.390;8.616;2024-02-16T13:45:58;15.30;1.00
37678;DHT22;23517;50.390;8.616;2024-02-16T13:48:25;15.20;1.00
37678;DHT22;23517;50.390;8.616;2024-02-16T13:50:54;15.20;1.00
37678;DHT22;23517;50.390;8.616;2024-02-16T13:53:22;15.10;1.00
37678;DHT22;23517;50.390;8.616;2024-02-16T13:55:51;15.10;1.00
37678;DHT22;23517;50.390;8.616;2024-02-16T13:58:18;15.00;1.00
37678;DHT22;23517;50.390;8.616;2024-02-16T14:00:45;15.00;1.00
37678;DHT22;23517;50.390;8.616;2024-02-16T14:03:14;15.00;1.00
37678;DHT22;23517;50.390;8.616;2024-02-16T14:05:42;15.00;1.00
37678;DHT22;23517;50.390;8.616;2024-02-16T14:08:11;15.00;1.00
37678;DHT22;23517;50.390;8.616;2024-02-16T14:10:39;15.10;1.00
37678;DHT22;23517;50.390;8.616;2024-02-16T14:13:06;15.10;1.00
37678;DHT22;23517;50.390;8.616;2024-02-16T14:15:32;15.20;1.00
37678;DHT22;23517;50.390;8.616;2024-02-16T14:18:00;15.20;1.00
37678;DHT22;23517;50.390;8.616;2024-02-16T14:20:34;15.20;1.00
37678;DHT22;23517;50.390;8.616;2024-02-16T14:23:01;15.20;1.00
37678;DHT22;23517;50.390;8.616;2024-02-16T14:25:29;15.00;1.00
37678;DHT22;23517;50.390;8.616;2024-02-16T14:27:55;15.00;1.00
37678;DHT22;23517;50.390;8.616;2024-02-16T14:30:22;15.00;1.00
37678;DHT22;23517;50.390;8.616;2024-02-16T14:32:49;15.00;1.00
37678;DHT22;23517;50.390;8.616;2024-02-16T14:35:19;14.90;1.00
37678;DHT22;23517;50.390;8.616;2024-02-16T14:37:49;14.80;1.00
37678;DHT22;23517;50.390;8.616;2024-02-16T14:40:16;14.70;1.00
37678;DHT22;23517;50.390;8.616;2024-02-16T14:42:42;14.70;1.00
37678;DHT22;23517;50.390;8.616;2024-02-16T14:45:09;14.70;1.00
37678;DHT22;23517;50.390;8.616;2024-02-16T14:47:45;14.60;1.00
37678;DHT22;23517;50.390;8.616;2024-02-16T14:50:12;14.60;1.00
37678;DHT22;23517;50.390;8.616;2024-02-16T14:52:41;14.60;1.00
37678;DHT22;23517;50.390;8.616;2024-02-16T14:55:08;14.60;1.00
37678;DHT22;23517;50.390;8.616;2024-02-16T14:57:40;14.70;1.00
37678;DHT22;23517;50.390;8.616;2024-02-16T15:00:08;14.70;1.00
37678;DHT22;23517;50.390;8.616;2024-02-16T15:02:37;14.70;1.00
37678;DHT22;23517;50.390;8.616;2024-02-16T15:05:06;14.70;1.00
37678;DHT22;23517;50.390;8.616;2024-02-16T15:07:33;14.60;1.00
37678;DHT22;23517;50.390;8.616;2024-02-16T15:10:03;14.50;1.00
37678;DHT22;23517;50.390;8.616;2024-02-16T15:12:31;14.50;1.00
37678;DHT22;23517;50.390;8.616;2024-02-16T15:14:58;14.50;1.00
37678;DHT22;23517;50.390;8.616;2024-02-16T15:17:26;14.40;1.00
37678;DHT22;23517;50.390;8.616;2024-02-16T15:19:53;14.40;1.00
37678;DHT22;23517;50.390;8.616;2024-02-16T15:22:20;14.40;1.00
37678;DHT22;23517;50.390;8.616;2024-02-16T15:24:47;14.30;1.00
37678;DHT22;23517;50.390;8.616;2024-02-16T15:27:14;14.30;1.00
37678;DHT22;23517;50.390;8.616;2024-02-16T15:29:41;14.20;1.00
37678;DHT22;23517;50.390;8.616;2024-02-16T15:32:08;14.10;1.00
37678;DHT22;23517;50.390;8.616;2024-02-16T15:34:35;14.10;1.00
37678;DHT22;23517;50.390;8.616;2024-02-16T15:37:02;14.00;1.00
37678;DHT22;23517;50.390;8.616;2024-02-16T15:39:30;14.00;4.20
37678;DHT22;23517;50.390;8.616;2024-02-16T15:41:56;14.00;36.90
37678;DHT22;23517;50.390;8.616;2024-02-16T15:44:23;13.90;99.90
37678;DHT22;23517;50.390;8.616;2024-02-16T15:46:50;13.90;99.90
37678;DHT22;23517;50.390;8.616;2024-02-16T15:49:17;13.90;99.90
37678;DHT22;23517;50.390;8.616;2024-02-16T15:51:44;13.80;99.90
37678;DHT22;23517;50.390;8.616;2024-02-16T15:54:11;13.80;99.90
37678;DHT22;23517;50.390;8.616;2024-02-16T15:56:38;13.80;99.90